Time;durP1;ratioP1;P1;durP2;ratioP2;P2;SDS_P1;SDS_P2;PMS_P1;PMS_P2;Temp;Humidity;BMP_temperature;BMP_pressure;BME280_temperature;BME280_humidity;BME280_pressure;Samples;Min_cycle;Max_cycle;Signal;HPM_P1;HPM_P2
2021/04/12 00:00:46;;;;;;;8.30;4.20;;;;;;;;;;739132;189;917097;-72
2021/04/12 00:03:26;;;;;;;5.50;3.43;;;;;;;;;;741887;189;638334;-71
2021/04/12 00:05:58;;;;;;;6.67;3.57;;;;;;;;;;734648;189;918608;-70
2021/04/12 00:08:25;;;;;;;11.73;4.23;;;;;;;;;;732465;189;919851;-70
2021/04/12 00:10:52;;;;;;;8.02;3.72;;;;;;;;;;733559;189;919351;-70
2021/04/12 00:13:21;;;;;;;7.37;4.60;;;;;;;;;;734651;189;919205;-71
2021/04/12 00:15:47;;;;;;;9.80;3.87;;;;;;;;;;733883;189;920842;-70
2021/04/12 00:18:18;;;;;;;5.57;3.70;;;;;;;;;;736765;187;919302;-70
2021/04/12 00:20:47;;;;;;;8.80;3.80;;;;;;;;;;738641;189;919540;-70
2021/04/12 00:23:13;;;;;;;5.10;3.60;;;;;;;;;;740888;189;918283;-70
2021/04/12 00:25:46;;;;;;;5.40;4.10;;;;;;;;;;734645;189;619282;-72
2021/04/12 00:28:12;;;;;;;5.50;3.30;;;;;;;;;;739736;189;918996;-72
2021/04/12 00:30:41;;;;;;;7.30;4.00;;;;;;;;;;737002;189;920983;-71
2021/04/12 00:33:17;;;;;;;10.77;3.30;;;;;;;;;;738547;189;916781;-71
2021/04/12 00:35:48;;;;;;;9.50;4.00;;;;;;;;;;740544;189;919355;-72
2021/04/12 00:38:29;;;;;;;4.57;3.57;;;;;;;;;;725616;189;1429830;-71
2021/04/12 00:40:58;;;;;;;5.90;3.87;;;;;;;;;;732900;189;938426;-70
2021/04/12 00:43:27;;;;;;;8.15;4.30;;;;;;;;;;729774;189;924678;-72
2021/04/12 00:45:58;;;;;;;4.65;3.40;;;;;;;;;;734947;189;919619;-70
2021/04/12 00:48:29;;;;;;;8.20;3.30;;;;;;;;;;739804;189;927046;-70
2021/04/12 00:50:58;;;;;;;6.10;4.00;;;;;;;;;;738452;189;919197;-72
2021/04/12 00:53:30;;;;;;;9.57;3.60;;;;;;;;;;731517;189;925733;-71
2021/04/12 00:55:56;;;;;;;5.93;3.57;;;;;;;;;;735307;189;1071653;-72
2021/04/12 00:58:21;;;;;;;6.30;3.63;;;;;;;;;;734987;189;954354;-70
2021/04/12 01:00:51;;;;;;;5.00;3.30;;;;;;;;;;737812;189;919288;-72
2021/04/12 01:03:17;;;;;;;7.20;3.90;;;;;;;;;;732736;189;918543;-72
2021/04/12 01:05:58;;;;;;;10.10;4.33;;;;;;;;;;734746;189;919199;-70
2021/04/12 01:08:40;;;;;;;6.97;3.50;;;;;;;;;;731582;189;918346;-70
2021/04/12 01:11:12;;;;;;;6.65;4.35;;;;;;;;;;712533;195;1023413;-70
2021/04/12 01:13:54;;;;;;;8.60;4.10;;;;;;;;;;719765;189;918013;-71
2021/04/12 01:16:20;;;;;;;9.17;4.43;;;;;;;;;;730922;190;918013;-71
2021/04/12 01:19:02;;;;;;;5.80;3.17;;;;;;;;;;734461;189;919159;-71
2021/04/12 01:21:44;;;;;;;9.67;4.23;;;;;;;;;;725741;190;919165;-70
2021/04/12 01:24:10;;;;;;;6.73;3.50;;;;;;;;;;722621;190;919588;-71
2021/04/12 01:26:42;;;;;;;5.87;3.37;;;;;;;;;;736219;189;919335;-71
2021/04/12 01:29:14;;;;;;;5.30;3.50;;;;;;;;;;740262;188;920166;-72
2021/04/12 01:31:55;;;;;;;7.73;3.57;;;;;;;;;;744369;188;914138;-70
2021/04/12 01:34:27;;;;;;;6.22;3.25;;;;;;;;;;735247;189;913370;-71
2021/04/12 01:36:53;;;;;;;8.87;3.43;;;;;;;;;;736616;189;920703;-70
2021/04/12 01:39:33;;;;;;;4.40;2.77;;;;;;;;;;731945;189;932223;-71
2021/04/12 01:42:01;;;;;;;9.17;3.13;;;;;;;;;;733646;189;926447;-70
2021/04/12 01:44:28;;;;;;;5.70;3.97;;;;;;;;;;731322;189;1821847;-71
2021/04/12 01:46:58;;;;;;;8.60;4.35;;;;;;;;;;735283;189;919277;-71
2021/04/12 01:49:27;;;;;;;7.70;3.37;;;;;;;;;;733781;186;920656;-70
2021/04/12 01:51:59;;;;;;;5.93;3.53;;;;;;;;;;733309;189;920421;-70
2021/04/12 01:54:26;;;;;;;5.70;3.40;;;;;;;;;;737301;189;914258;-70
2021/04/12 01:57:10;;;;;;;5.40;3.30;;;;;;;;;;738486;189;916142;-71
2021/04/12 01:59:39;;;;;;;5.70;3.77;;;;;;;;;;734263;189;917923;-70
2021/04/12 02:02:05;;;;;;;8.37;3.70;;;;;;;;;;737254;189;915552;-70
2021/04/12 02:04:34;;;;;;;7.10;3.43;;;;;;;;;;730434;189;1964388;-70
2021/04/12 02:07:04;;;;;;;4.60;3.60;;;;;;;;;;740193;189;918542;-70
2021/04/12 02:09:30;;;;;;;7.67;3.43;;;;;;;;;;739415;189;920936;-71
2021/04/12 02:12:13;;;;;;;7.63;4.47;;;;;;;;;;727127;189;918564;-70
2021/04/12 02:14:39;;;;;;;7.53;3.53;;;;;;;;;;733806;189;1019690;-71
2021/04/12 02:17:05;;;;;;;6.17;3.50;;;;;;;;;;733289;189;912258;-71
2021/04/12 02:19:32;;;;;;;7.30;4.80;;;;;;;;;;737602;189;912904;-70
2021/04/12 02:21:58;;;;;;;5.33;3.30;;;;;;;;;;733046;189;913968;-71
2021/04/12 02:24:29;;;;;;;9.60;4.43;;;;;;;;;;740218;189;913809;-71
2021/04/12 02:27:01;;;;;;;5.70;4.17;;;;;;;;;;737685;189;913995;-71
2021/04/12 02:29:27;;;;;;;11.52;3.40;;;;;;;;;;739694;189;912349;-71
2021/04/12 02:31:58;;;;;;;6.47;4.83;;;;;;;;;;732288;189;918958;-71
2021/04/12 02:34:24;;;;;;;7.57;3.70;;;;;;;;;;734827;189;1124020;-70
2021/04/12 02:37:03;;;;;;;5.80;3.50;;;;;;;;;;732286;189;910377;-71
2021/04/12 02:39:30;;;;;;;5.75;3.90;;;;;;;;;;743387;184;914351;-72
2021/04/12 02:42:13;;;;;;;5.60;4.17;;;;;;;;;;740867;189;918901;-71
2021/04/12 02:44:45;;;;;;;6.43;3.90;;;;;;;;;;742099;189;919414;-70
2021/04/12 02:47:11;;;;;;;6.73;4.37;;;;;;;;;;734154;189;918996;-70
2021/04/12 02:49:39;;;;;;;5.77;3.83;;;;;;;;;;732963;189;918792;-70
2021/04/12 02:52:24;;;;;;;5.80;3.27;;;;;;;;;;735611;189;1112261;-71
2021/04/12 02:54:56;;;;;;;7.17;4.43;;;;;;;;;;741894;189;915504;-71
2021/04/12 02:57:25;;;;;;;5.87;3.50;;;;;;;;;;738670;189;918583;-72
2021/04/12 02:59:57;;;;;;;9.03;3.87;;;;;;;;;;735846;189;917866;-71
2021/04/12 03:02:29;;;;;;;7.50;4.20;;;;;;;;;;730352;189;874712;-70
2021/04/12 03:04:59;;;;;;;7.90;4.60;;;;;;;;;;731798;189;916047;-71
2021/04/12 03:07:31;;;;;;;7.50;4.80;;;;;;;;;;737592;189;920974;-70
2021/04/12 03:10:03;;;;;;;5.53;3.40;;;;;;;;;;740573;189;877604;-71
2021/04/12 03:12:34;;;;;;;6.70;4.10;;;;;;;;;;728295;189;1291319;-70
2021/04/12 03:15:06;;;;;;;9.73;4.40;;;;;;;;;;735004;189;916501;-70
2021/04/12 03:17:38;;;;;;;8.30;3.97;;;;;;;;;;727135;189;1737756;-70
2021/04/12 03:20:04;;;;;;;6.73;4.80;;;;;;;;;;741185;189;919296;-70
2021/04/12 03:22:45;;;;;;;7.07;3.87;;;;;;;;;;734710;189;918980;-73
2021/04/12 03:25:17;;;;;;;8.00;3.50;;;;;;;;;;726580;189;918965;-70
2021/04/12 03:27:58;;;;;;;10.23;4.53;;;;;;;;;;731397;189;919477;-70
2021/04/12 03:30:24;;;;;;;7.73;4.80;;;;;;;;;;723425;189;919155;-70
2021/04/12 03:32:52;;;;;;;7.50;4.33;;;;;;;;;;726229;189;919397;-72
2021/04/12 03:35:19;;;;;;;6.67;4.10;;;;;;;;;;743709;189;861683;-70
2021/04/12 03:37:45;;;;;;;6.65;4.35;;;;;;;;;;733528;189;919213;-70
2021/04/12 03:40:26;;;;;;;7.40;5.00;;;;;;;;;;730164;189;919113;-70
2021/04/12 03:42:53;;;;;;;9.50;4.17;;;;;;;;;;733921;189;918785;-71
2021/04/12 03:45:34;;;;;;;9.43;5.17;;;;;;;;;;734735;189;901762;-70
2021/04/12 03:48:06;;;;;;;10.37;4.87;;;;;;;;;;735441;189;915239;-71
2021/04/12 03:50:38;;;;;;;11.80;4.23;;;;;;;;;;736880;189;919323;-69
2021/04/12 03:53:10;;;;;;;8.40;4.23;;;;;;;;;;738119;187;918653;-70
2021/04/12 03:55:42;;;;;;;7.23;4.63;;;;;;;;;;733567;188;919407;-69
2021/04/12 03:58:09;;;;;;;10.40;5.60;;;;;;;;;;730594;189;918934;-70
2021/04/12 04:00:39;;;;;;;8.27;5.10;;;;;;;;;;737128;189;918421;-70
2021/04/12 04:03:10;;;;;;;6.23;4.50;;;;;;;;;;739410;189;895270;-71
2021/04/12 04:05:41;;;;;;;6.68;4.72;;;;;;;;;;735025;189;918968;-72
2021/04/12 04:08:11;;;;;;;6.82;4.15;;;;;;;;;;739494;189;918737;-71
2021/04/12 04:10:43;;;;;;;8.70;4.43;;;;;;;;;;732997;189;919199;-71
2021/04/12 04:13:24;;;;;;;7.40;4.30;;;;;;;;;;736155;189;919376;-71
2021/04/12 04:15:53;;;;;;;10.03;5.30;;;;;;;;;;730442;189;919170;-72
2021/04/12 04:18:23;;;;;;;15.97;7.23;;;;;;;;;;732724;189;919058;-70
2021/04/12 04:21:04;;;;;;;12.15;6.25;;;;;;;;;;730084;189;1577522;-70
2021/04/12 04:23:39;;;;;;;8.37;6.20;;;;;;;;;;725820;190;919241;-70
2021/04/12 04:26:09;;;;;;;9.33;7.90;;;;;;;;;;732092;189;920999;-72
2021/04/12 04:28:54;;;;;;;18.30;6.27;;;;;;;;;;738882;189;1021478;-71
2021/04/12 04:31:26;;;;;;;8.00;4.53;;;;;;;;;;731165;189;1159024;-72
2021/04/12 04:33:55;;;;;;;6.60;4.40;;;;;;;;;;740506;189;917905;-72
2021/04/12 04:36:26;;;;;;;7.40;5.47;;;;;;;;;;731674;189;917276;-71
2021/04/12 04:38:56;;;;;;;5.37;4.67;;;;;;;;;;735491;189;918640;-72
2021/04/12 04:41:23;;;;;;;7.03;4.50;;;;;;;;;;733272;189;919017;-71
2021/04/12 04:44:04;;;;;;;7.43;4.65;;;;;;;;;;742861;189;919527;-70
2021/04/12 04:46:32;;;;;;;14.53;8.87;;;;;;;;;;721279;190;918369;-71
2021/04/12 04:49:04;;;;;;;17.27;8.70;;;;;;;;;;734999;189;919150;-71
2021/04/12 04:51:44;;;;;;;13.98;7.55;;;;;;;;;;735863;189;919273;-70
2021/04/12 04:54:11;;;;;;;9.80;6.50;;;;;;;;;;728327;189;920941;-71
2021/04/12 04:56:43;;;;;;;16.03;7.67;;;;;;;;;;733705;189;913751;-70
2021/04/12 04:59:15;;;;;;;8.83;6.10;;;;;;;;;;745168;189;917018;-71
2021/04/12 05:01:46;;;;;;;20.57;12.43;;;;;;;;;;734110;189;918719;-70
2021/04/12 05:04:27;;;;;;;19.70;10.53;;;;;;;;;;736368;188;997426;-71
2021/04/12 05:06:59;;;;;;;10.43;5.53;;;;;;;;;;733527;189;1015923;-70
2021/04/12 05:09:26;;;;;;;8.00;5.33;;;;;;;;;;738929;189;920626;-70
2021/04/12 05:11:57;;;;;;;8.17;4.53;;;;;;;;;;739556;189;918055;-70
2021/04/12 05:14:25;;;;;;;10.35;5.60;;;;;;;;;;733157;189;919431;-70
2021/04/12 05:16:55;;;;;;;9.30;5.70;;;;;;;;;;730710;189;919272;-72
2021/04/12 05:19:23;;;;;;;8.00;5.20;;;;;;;;;;733943;189;923302;-70
2021/04/12 05:21:49;;;;;;;7.27;5.20;;;;;;;;;;740258;189;872489;-70
2021/04/12 05:24:30;;;;;;;7.03;4.50;;;;;;;;;;736405;189;915135;-71
2021/04/12 05:27:17;;;;;;;7.67;5.60;;;;;;;;;;725377;190;909152;-69
2021/04/12 05:29:45;;;;;;;8.50;5.17;;;;;;;;;;716437;193;815782;-71
2021/04/12 05:32:14;;;;;;;9.90;6.00;;;;;;;;;;734030;189;915482;-70
2021/04/12 05:34:44;;;;;;;9.37;6.00;;;;;;;;;;732749;189;1018630;-70
2021/04/12 05:37:15;;;;;;;5.83;4.47;;;;;;;;;;738006;189;916314;-71
2021/04/12 05:39:58;;;;;;;8.97;5.60;;;;;;;;;;723275;189;851048;-70
2021/04/12 05:42:30;;;;;;;35.33;18.90;;;;;;;;;;733492;189;937055;-70
2021/04/12 05:45:01;;;;;;;18.30;8.68;;;;;;;;;;733084;189;897780;-70
2021/04/12 05:47:30;;;;;;;25.67;15.67;;;;;;;;;;735032;189;922495;-70
2021/04/12 05:49:56;;;;;;;11.27;6.33;;;;;;;;;;733039;189;918924;-70
2021/04/12 05:52:30;;;;;;;12.87;7.10;;;;;;;;;;736570;189;920228;-70
2021/04/12 05:55:01;;;;;;;25.30;11.43;;;;;;;;;;737933;189;918446;-71
2021/04/12 05:57:45;;;;;;;19.95;11.82;;;;;;;;;;734939;189;917003;-70
2021/04/12 06:00:12;;;;;;;9.30;5.17;;;;;;;;;;728260;189;1133677;-70
2021/04/12 06:02:45;;;;;;;12.02;6.50;;;;;;;;;;737063;189;919340;-70
2021/04/12 06:05:15;;;;;;;9.60;5.57;;;;;;;;;;727902;189;918088;-71
2021/04/12 06:07:47;;;;;;;13.97;5.10;;;;;;;;;;738443;189;919449;-70
2021/04/12 06:10:29;;;;;;;9.50;5.10;;;;;;;;;;733937;189;919239;-70
2021/04/12 06:13:12;;;;;;;7.07;3.63;;;;;;;;;;727014;189;917742;-70
2021/04/12 06:15:40;;;;;;;5.17;3.10;;;;;;;;;;731163;188;987369;-71
2021/04/12 06:18:21;;;;;;;5.50;3.60;;;;;;;;;;736224;189;918915;-71
2021/04/12 06:21:02;;;;;;;7.30;4.03;;;;;;;;;;722769;189;918897;-70
2021/04/12 06:23:28;;;;;;;5.47;2.80;;;;;;;;;;735321;189;919481;-71
2021/04/12 06:25:53;;;;;;;6.40;3.80;;;;;;;;;;731128;189;1132958;-70
2021/04/12 06:28:37;;;;;;;7.63;3.67;;;;;;;;;;732336;189;918824;-70
2021/04/12 06:31:05;;;;;;;4.97;3.10;;;;;;;;;;735768;189;918817;-71
2021/04/12 06:33:31;;;;;;;4.93;3.23;;;;;;;;;;735375;189;938413;-71
2021/04/12 06:36:00;;;;;;;5.67;3.23;;;;;;;;;;729161;189;919324;-70
2021/04/12 06:38:30;;;;;;;4.90;2.70;;;;;;;;;;738344;189;919107;-70
2021/04/12 06:41:11;;;;;;;5.73;2.83;;;;;;;;;;737037;189;919032;-70
2021/04/12 06:43:38;;;;;;;7.43;3.93;;;;;;;;;;740540;189;924658;-71
2021/04/12 06:46:19;;;;;;;5.03;3.13;;;;;;;;;;726870;189;1280380;-71
2021/04/12 06:49:03;;;;;;;5.87;3.17;;;;;;;;;;726123;189;918981;-71
2021/04/12 06:51:49;;;;;;;5.93;2.70;;;;;;;;;;718268;189;918725;-71
2021/04/12 06:54:21;;;;;;;4.43;3.10;;;;;;;;;;733537;189;1124563;-69
2021/04/12 06:56:58;;;;;;;5.10;3.00;;;;;;;;;;729556;189;918687;-69
2021/04/12 06:59:30;;;;;;;3.13;2.20;;;;;;;;;;734685;189;919243;-70
2021/04/12 07:02:02;;;;;;;5.03;3.27;;;;;;;;;;731796;189;919813;-71
2021/04/12 07:04:33;;;;;;;7.40;3.03;;;;;;;;;;738587;189;919716;-70
2021/04/12 07:07:05;;;;;;;6.70;3.43;;;;;;;;;;730793;189;1438378;-69
2021/04/12 07:09:49;;;;;;;5.43;3.03;;;;;;;;;;736322;189;919722;-69
2021/04/12 07:12:18;;;;;;;8.73;4.30;;;;;;;;;;717374;190;923593;-70
2021/04/12 07:15:05;;;;;;;5.20;3.30;;;;;;;;;;732191;189;921396;-69
2021/04/12 07:17:34;;;;;;;5.80;3.00;;;;;;;;;;720714;189;921293;-70
2021/04/12 07:20:03;;;;;;;5.93;2.90;;;;;;;;;;735302;189;920523;-70
2021/04/12 07:22:34;;;;;;;7.43;2.70;;;;;;;;;;735723;189;920062;-71
2021/04/12 07:25:06;;;;;;;7.77;2.90;;;;;;;;;;737044;189;915744;-70
2021/04/12 07:27:38;;;;;;;6.07;3.30;;;;;;;;;;737488;188;931681;-70
2021/04/12 07:30:10;;;;;;;5.23;3.00;;;;;;;;;;738177;189;969486;-70
2021/04/12 07:32:36;;;;;;;6.83;3.17;;;;;;;;;;732359;189;920422;-69
2021/04/12 07:35:08;;;;;;;9.23;3.43;;;;;;;;;;735504;189;919446;-68
2021/04/12 07:37:40;;;;;;;5.37;3.10;;;;;;;;;;735719;189;916139;-68
2021/04/12 07:40:12;;;;;;;5.82;3.58;;;;;;;;;;736002;189;937706;-70
2021/04/12 07:42:48;;;;;;;7.93;3.87;;;;;;;;;;739296;189;916014;-69
2021/04/12 07:45:18;;;;;;;7.37;3.17;;;;;;;;;;735309;189;919584;-70
2021/04/12 07:47:50;;;;;;;5.17;3.20;;;;;;;;;;742674;189;914360;-70
2021/04/12 07:50:22;;;;;;;10.47;4.50;;;;;;;;;;732713;189;942767;-70
2021/04/12 07:53:08;;;;;;;7.13;3.03;;;;;;;;;;732962;189;919114;-70
2021/04/12 07:55:38;;;;;;;5.07;3.07;;;;;;;;;;717186;189;1301358;-71
2021/04/12 07:58:05;;;;;;;5.43;3.15;;;;;;;;;;734445;189;919224;-69
2021/04/12 08:00:37;;;;;;;8.13;3.37;;;;;;;;;;734765;189;918705;-68
2021/04/12 08:03:09;;;;;;;5.80;3.27;;;;;;;;;;737018;190;918547;-68
2021/04/12 08:05:40;;;;;;;7.20;2.93;;;;;;;;;;722449;189;1748222;-70
2021/04/12 08:08:23;;;;;;;4.37;2.97;;;;;;;;;;734612;189;924021;-69
2021/04/12 08:11:07;;;;;;;4.67;2.80;;;;;;;;;;722798;189;922355;-70
2021/04/12 08:13:53;;;;;;;6.97;2.93;;;;;;;;;;733533;189;919374;-69
2021/04/12 08:16:23;;;;;;;6.37;3.20;;;;;;;;;;712569;190;2038524;-69
2021/04/12 08:18:55;;;;;;;4.35;2.72;;;;;;;;;;729872;189;944411;-69
2021/04/12 08:21:36;;;;;;;4.97;2.97;;;;;;;;;;734859;189;919443;-68
2021/04/12 08:24:17;;;;;;;7.27;3.30;;;;;;;;;;724257;192;923313;-69
2021/04/12 08:26:47;;;;;;;5.77;3.00;;;;;;;;;;708914;196;919655;-68
2021/04/12 08:29:28;;;;;;;6.70;3.00;;;;;;;;;;738648;188;1019790;-69
2021/04/12 08:32:09;;;;;;;11.23;3.33;;;;;;;;;;725127;189;919238;-69
2021/04/12 08:34:55;;;;;;;8.10;3.90;;;;;;;;;;731056;189;919386;-68
2021/04/12 08:37:27;;;;;;;6.80;3.53;;;;;;;;;;729728;189;919313;-68
2021/04/12 08:39:58;;;;;;;5.27;3.50;;;;;;;;;;736973;189;941465;-67
2021/04/12 08:42:29;;;;;;;9.80;4.00;;;;;;;;;;730602;189;919012;-68
2021/04/12 08:45:02;;;;;;;6.60;3.37;;;;;;;;;;736845;189;927614;-69
2021/04/12 08:47:28;;;;;;;6.80;3.87;;;;;;;;;;732378;189;918270;-68
2021/04/12 08:50:00;;;;;;;8.27;3.50;;;;;;;;;;739922;189;919227;-68
2021/04/12 08:52:40;;;;;;;7.20;4.00;;;;;;;;;;731617;189;919193;-68
2021/04/12 08:55:12;;;;;;;6.07;3.60;;;;;;;;;;719400;189;919672;-69
2021/04/12 08:57:44;;;;;;;4.63;2.60;;;;;;;;;;734165;189;918591;-68
2021/04/12 09:00:16;;;;;;;4.83;3.30;;;;;;;;;;731274;189;919892;-69
2021/04/12 09:02:48;;;;;;;3.60;2.40;;;;;;;;;;736986;189;914703;-71
2021/04/12 09:05:15;;;;;;;6.40;3.00;;;;;;;;;;739488;189;915454;-68
2021/04/12 09:07:42;;;;;;;3.70;2.60;;;;;;;;;;730927;189;1117668;-68
2021/04/12 09:10:23;;;;;;;8.77;3.53;;;;;;;;;;733964;189;916284;-71
2021/04/12 09:13:04;;;;;;;4.73;3.03;;;;;;;;;;725267;188;915197;-69
2021/04/12 09:15:44;;;;;;;16.40;4.10;;;;;;;;;;729599;189;919482;-69
2021/04/12 09:18:26;;;;;;;10.73;3.40;;;;;;;;;;719811;190;919683;-68
2021/04/12 09:20:57;;;;;;;6.67;3.50;;;;;;;;;;727431;189;623471;-68
2021/04/12 09:23:44;;;;;;;6.40;2.90;;;;;;;;;;743346;189;642570;-70
2021/04/12 09:26:11;;;;;;;6.90;3.17;;;;;;;;;;722848;193;919612;-68
2021/04/12 09:28:51;;;;;;;5.10;3.53;;;;;;;;;;730172;189;921101;-69
2021/04/12 09:31:23;;;;;;;8.30;3.07;;;;;;;;;;728874;189;944727;-69
2021/04/12 09:34:10;;;;;;;4.83;3.03;;;;;;;;;;731212;189;918503;-68
2021/04/12 09:36:37;;;;;;;5.63;3.30;;;;;;;;;;737309;189;918441;-68
2021/04/12 09:39:21;;;;;;;5.33;3.30;;;;;;;;;;733200;189;918854;-67
2021/04/12 09:41:53;;;;;;;6.77;2.90;;;;;;;;;;735572;189;919212;-68
2021/04/12 09:44:22;;;;;;;5.37;3.20;;;;;;;;;;729881;189;919291;-69
2021/04/12 09:46:56;;;;;;;10.30;3.70;;;;;;;;;;739887;189;919081;-70
2021/04/12 09:49:37;;;;;;;5.57;3.17;;;;;;;;;;726956;188;919172;-69
2021/04/12 09:52:12;;;;;;;5.20;3.33;;;;;;;;;;737147;189;920525;-68
2021/04/12 09:54:44;;;;;;;10.70;3.57;;;;;;;;;;737485;189;917579;-69
2021/04/12 09:57:25;;;;;;;7.63;3.30;;;;;;;;;;733078;189;920509;-68
2021/04/12 09:59:56;;;;;;;8.93;3.30;;;;;;;;;;714773;193;917772;-67
2021/04/12 10:02:38;;;;;;;7.50;3.70;;;;;;;;;;737175;189;918223;-68
2021/04/12 10:05:18;;;;;;;4.37;2.90;;;;;;;;;;729320;189;915561;-67
2021/04/12 10:07:49;;;;;;;11.30;3.50;;;;;;;;;;736830;189;911351;-68
2021/04/12 10:10:19;;;;;;;5.90;3.10;;;;;;;;;;733977;189;916132;-68
2021/04/12 10:12:51;;;;;;;6.03;3.47;;;;;;;;;;738230;186;919299;-68
2021/04/12 10:15:22;;;;;;;8.27;2.67;;;;;;;;;;733037;189;919606;-70
2021/04/12 10:17:49;;;;;;;7.23;3.53;;;;;;;;;;735891;189;927462;-69
2021/04/12 10:20:14;;;;;;;6.30;3.50;;;;;;;;;;733798;189;919585;-68
2021/04/12 10:22:56;;;;;;;10.47;3.73;;;;;;;;;;734456;189;918864;-68
2021/04/12 10:25:27;;;;;;;5.57;3.28;;;;;;;;;;734628;189;978873;-68
2021/04/12 10:27:51;;;;;;;6.10;2.93;;;;;;;;;;736829;189;874248;-70
2021/04/12 10:30:18;;;;;;;8.77;3.47;;;;;;;;;;734812;189;1109775;-68
2021/04/12 10:32:45;;;;;;;4.83;3.17;;;;;;;;;;728894;191;624803;-69
2021/04/12 10:35:11;;;;;;;4.73;2.70;;;;;;;;;;738923;189;644503;-68
2021/04/12 10:37:40;;;;;;;6.40;3.40;;;;;;;;;;740059;189;639921;-70
2021/04/12 10:40:08;;;;;;;4.10;2.80;;;;;;;;;;740340;189;621967;-69
2021/04/12 10:42:34;;;;;;;7.80;3.50;;;;;;;;;;739761;189;631629;-68
2021/04/12 10:45:03;;;;;;;5.50;2.60;;;;;;;;;;737420;189;1123826;-68
2021/04/12 10:47:30;;;;;;;4.63;2.50;;;;;;;;;;733156;189;918928;-67
2021/04/12 10:50:01;;;;;;;7.43;3.43;;;;;;;;;;744122;189;716885;-68
2021/04/12 10:52:38;;;;;;;4.27;3.10;;;;;;;;;;732481;189;1243742;-67
2021/04/12 10:55:04;;;;;;;4.80;3.60;;;;;;;;;;736426;189;717171;-68
2021/04/12 10:57:30;;;;;;;8.30;3.67;;;;;;;;;;735591;189;654257;-68
2021/04/12 11:00:11;;;;;;;3.77;2.57;;;;;;;;;;741494;189;636590;-67
2021/04/12 11:02:44;;;;;;;9.10;3.00;;;;;;;;;;735298;189;898801;-68
2021/04/12 11:05:11;;;;;;;9.47;5.47;;;;;;;;;;741284;189;918275;-67
2021/04/12 11:07:39;;;;;;;14.63;6.67;;;;;;;;;;736091;189;919617;-67
2021/04/12 11:10:16;;;;;;;11.30;6.50;;;;;;;;;;738181;189;918567;-66
2021/04/12 11:12:43;;;;;;;10.60;6.40;;;;;;;;;;732691;189;919547;-67
2021/04/12 11:15:09;;;;;;;21.13;6.43;;;;;;;;;;741209;189;919330;-68
2021/04/12 11:17:35;;;;;;;13.30;6.33;;;;;;;;;;735063;189;919683;-66
2021/04/12 11:20:05;;;;;;;7.87;5.80;;;;;;;;;;738347;189;918928;-68
2021/04/12 11:22:32;;;;;;;13.30;6.37;;;;;;;;;;738899;189;917875;-67
2021/04/12 11:24:57;;;;;;;10.90;5.87;;;;;;;;;;734531;189;920077;-68
2021/04/12 11:27:40;;;;;;;13.03;6.17;;;;;;;;;;732548;189;919455;-67
2021/04/12 11:30:21;;;;;;;10.40;6.23;;;;;;;;;;732805;189;1025807;-68
2021/04/12 11:32:46;;;;;;;12.03;8.83;;;;;;;;;;732469;189;1119357;-67
2021/04/12 11:35:13;;;;;;;16.17;7.00;;;;;;;;;;734448;189;992003;-69
2021/04/12 11:37:55;;;;;;;14.53;6.00;;;;;;;;;;739212;185;992461;-68
2021/04/12 11:40:25;;;;;;;17.17;7.87;;;;;;;;;;735361;189;950329;-68
2021/04/12 11:42:50;;;;;;;10.85;7.32;;;;;;;;;;731215;189;919513;-71
2021/04/12 11:45:17;;;;;;;11.33;8.00;;;;;;;;;;735878;189;919526;-68
2021/04/12 11:47:49;;;;;;;11.70;7.57;;;;;;;;;;737726;189;918712;-68
2021/04/12 11:50:31;;;;;;;14.07;9.03;;;;;;;;;;738456;189;918998;-67
2021/04/12 11:52:57;;;;;;;10.20;7.23;;;;;;;;;;728760;189;919554;-68
2021/04/12 11:55:27;;;;;;;15.43;10.47;;;;;;;;;;736382;189;919146;-70
2021/04/12 11:57:53;;;;;;;19.13;10.53;;;;;;;;;;734784;189;946107;-67
2021/04/12 12:00:20;;;;;;;13.57;10.20;;;;;;;;;;740935;189;905447;-68
2021/04/12 12:02:54;;;;;;;18.10;11.60;;;;;;;;;;739867;189;919014;-68
2021/04/12 12:05:20;;;;;;;19.50;12.25;;;;;;;;;;735324;189;900695;-66
2021/04/12 12:07:47;;;;;;;23.20;12.57;;;;;;;;;;735354;189;919358;-66
2021/04/12 12:10:15;;;;;;;21.40;11.87;;;;;;;;;;738672;189;918769;-67
2021/04/12 12:12:58;;;;;;;29.30;15.80;;;;;;;;;;736093;188;926693;-68
2021/04/12 12:15:24;;;;;;;27.60;14.93;;;;;;;;;;736366;189;915517;-67
2021/04/12 12:18:03;;;;;;;25.93;15.53;;;;;;;;;;738497;189;918517;-68
2021/04/12 12:20:29;;;;;;;19.70;14.37;;;;;;;;;;736993;189;887037;-67
2021/04/12 12:22:56;;;;;;;22.53;14.00;;;;;;;;;;743604;189;815693;-69
2021/04/12 12:25:24;;;;;;;23.57;14.83;;;;;;;;;;735276;189;919314;-68
2021/04/12 12:27:51;;;;;;;26.20;14.37;;;;;;;;;;733678;189;919431;-68
2021/04/12 12:30:18;;;;;;;24.90;14.70;;;;;;;;;;735757;189;917900;-68
2021/04/12 12:33:01;;;;;;;30.10;17.40;;;;;;;;;;743697;189;630669;-67
2021/04/12 12:35:46;;;;;;;29.87;17.37;;;;;;;;;;730574;189;929187;-67
2021/04/12 12:38:18;;;;;;;31.60;16.97;;;;;;;;;;735563;189;919062;-68
2021/04/12 12:40:44;;;;;;;29.40;17.23;;;;;;;;;;731228;189;922338;-68
2021/04/12 12:43:09;;;;;;;26.90;18.60;;;;;;;;;;736975;189;915350;-68
2021/04/12 12:45:37;;;;;;;28.30;17.10;;;;;;;;;;734226;189;915715;-67
2021/04/12 12:48:03;;;;;;;24.60;16.57;;;;;;;;;;740374;189;919406;-67
2021/04/12 12:50:30;;;;;;;22.23;15.50;;;;;;;;;;737966;189;624856;-67
2021/04/12 12:52:57;;;;;;;26.47;16.30;;;;;;;;;;732137;189;1021402;-67
2021/04/12 12:55:26;;;;;;;33.92;18.12;;;;;;;;;;730757;189;2191258;-68
2021/04/12 12:57:52;;;;;;;74.30;21.57;;;;;;;;;;737138;189;946680;-66
2021/04/12 13:00:21;;;;;;;38.20;22.03;;;;;;;;;;734930;189;918601;-68
2021/04/12 13:02:47;;;;;;;31.00;20.30;;;;;;;;;;732537;189;920643;-68
2021/04/12 13:05:32;;;;;;;34.97;18.20;;;;;;;;;;739897;189;921085;-67
2021/04/12 13:08:02;;;;;;;29.53;16.50;;;;;;;;;;738519;189;923865;-68
2021/04/12 13:10:37;;;;;;;36.00;20.93;;;;;;;;;;734392;189;918857;-67
2021/04/12 13:13:03;;;;;;;32.40;18.60;;;;;;;;;;733846;189;919864;-68
2021/04/12 13:15:32;;;;;;;32.33;15.37;;;;;;;;;;735597;189;920440;-65
2021/04/12 13:18:07;;;;;;;33.77;19.03;;;;;;;;;;739996;189;918829;-67
2021/04/12 13:20:34;;;;;;;45.17;20.97;;;;;;;;;;739456;189;918436;-66
2021/04/12 13:23:00;;;;;;;40.53;22.50;;;;;;;;;;736071;189;920087;-68
2021/04/12 13:25:32;;;;;;;31.10;19.50;;;;;;;;;;740373;187;919119;-68
2021/04/12 13:28:15;;;;;;;32.50;21.00;;;;;;;;;;730185;189;1277513;-67
2021/04/12 13:30:41;;;;;;;44.07;22.40;;;;;;;;;;732895;189;916800;-68
2021/04/12 13:33:07;;;;;;;50.17;22.57;;;;;;;;;;734630;189;915660;-67
2021/04/12 13:35:34;;;;;;;38.03;21.95;;;;;;;;;;733095;189;914646;-66
2021/04/12 13:38:00;;;;;;;44.77;24.40;;;;;;;;;;733086;189;1021701;-69
2021/04/12 13:40:27;;;;;;;39.27;22.67;;;;;;;;;;741213;189;918643;-67
2021/04/12 13:42:52;;;;;;;33.27;21.07;;;;;;;;;;734744;189;915983;-67
2021/04/12 13:45:24;;;;;;;35.00;19.27;;;;;;;;;;737071;189;919779;-67
2021/04/12 13:47:50;;;;;;;28.83;18.07;;;;;;;;;;734035;189;916204;-67
2021/04/12 13:50:18;;;;;;;25.50;14.93;;;;;;;;;;740102;189;919042;-66
2021/04/12 13:52:44;;;;;;;32.17;16.87;;;;;;;;;;734574;189;1004733;-69
2021/04/12 13:55:10;;;;;;;27.67;13.13;;;;;;;;;;734042;189;919384;-68
2021/04/12 13:57:36;;;;;;;31.80;15.87;;;;;;;;;;738107;189;922693;-69
2021/04/12 14:00:17;;;;;;;32.10;19.10;;;;;;;;;;736087;189;919341;-67
2021/04/12 14:02:44;;;;;;;28.17;16.63;;;;;;;;;;735110;189;962906;-70
2021/04/12 14:05:09;;;;;;;21.80;13.70;;;;;;;;;;731449;189;921221;-70
2021/04/12 14:07:36;;;;;;;31.87;12.63;;;;;;;;;;733442;189;919865;-69
2021/04/12 14:10:12;;;;;;;26.17;14.30;;;;;;;;;;741147;189;919293;-70
2021/04/12 14:12:39;;;;;;;40.13;17.53;;;;;;;;;;735394;189;922187;-71
2021/04/12 14:15:07;;;;;;;33.90;18.93;;;;;;;;;;729803;189;1014947;-72
2021/04/12 14:17:35;;;;;;;31.60;17.83;;;;;;;;;;735674;189;919219;-68
2021/04/12 14:20:01;;;;;;;48.17;16.57;;;;;;;;;;740051;189;912831;-69
2021/04/12 14:22:27;;;;;;;33.40;16.97;;;;;;;;;;734836;189;918261;-70
2021/04/12 14:24:53;;;;;;;39.33;24.50;;;;;;;;;;733844;189;920742;-69
2021/04/12 14:27:22;;;;;;;27.30;15.80;;;;;;;;;;743376;189;915446;-68
2021/04/12 14:29:50;;;;;;;22.17;11.57;;;;;;;;;;736641;189;916865;-69
2021/04/12 14:32:16;;;;;;;16.10;9.33;;;;;;;;;;738999;189;915355;-68
2021/04/12 14:34:42;;;;;;;16.27;9.07;;;;;;;;;;732331;189;1258476;-66
2021/04/12 14:37:08;;;;;;;15.83;8.20;;;;;;;;;;734938;188;919313;-70
2021/04/12 14:39:34;;;;;;;19.27;10.77;;;;;;;;;;731639;189;1096661;-68
2021/04/12 14:42:02;;;;;;;18.98;10.82;;;;;;;;;;731369;189;1019633;-66
2021/04/12 14:44:27;;;;;;;16.23;10.50;;;;;;;;;;733611;189;919115;-69
2021/04/12 14:46:53;;;;;;;15.67;8.90;;;;;;;;;;734181;189;921407;-69